sensor_id;sensor_type;location;lat;lon;timestamp;pressure;altitude;pressure_sealevel;temperature;humidity
8039;BME280;4062;49.844;8.120;2022-08-11T00:00:43;99834.53;;;20.43;53.54
8039;BME280;4062;49.844;8.120;2022-08-11T00:02:50;99831.84;;;20.43;53.97
8039;BME280;4062;49.844;8.120;2022-08-11T00:04:54;99823.78;;;20.43;53.81
8039;BME280;4062;49.844;8.120;2022-08-11T00:06:56;99829.16;;;20.43;53.80
8039;BME280;4062;49.844;8.120;2022-08-11T00:09:09;99835.38;;;20.43;53.74
8039;BME280;4062;49.844;8.120;2022-08-11T00:11:11;99840.66;;;20.45;53.95
8039;BME280;4062;49.844;8.120;2022-08-11T00:13:12;99845.25;;;20.43;53.90
8039;BME280;4062;49.844;8.120;2022-08-11T00:15:13;99834.53;;;20.43;53.96
8039;BME280;4062;49.844;8.120;2022-08-11T00:17:15;99838.06;;;20.43;53.71
8039;BME280;4062;49.844;8.120;2022-08-11T00:19:22;99837.09;;;20.44;53.79
8039;BME280;4062;49.844;8.120;2022-08-11T00:21:25;99842.47;;;20.44;53.70
8039;BME280;4062;49.844;8.120;2022-08-11T00:23:27;99832.69;;;20.43;53.64
8039;BME280;4062;49.844;8.120;2022-08-11T00:25:28;99828.19;;;20.44;53.70
8039;BME280;4062;49.844;8.120;2022-08-11T00:27:34;99831.84;;;20.43;53.75
8039;BME280;4062;49.844;8.120;2022-08-11T00:29:35;99829.16;;;20.43;53.74
8039;BME280;4062;49.844;8.120;2022-08-11T00:31:37;99834.53;;;20.43;53.55
8039;BME280;4062;49.844;8.120;2022-08-11T00:33:43;99838.06;;;20.43;53.75
8039;BME280;4062;49.844;8.120;2022-08-11T00:35:45;99826.47;;;20.43;53.43
8039;BME280;4062;49.844;8.120;2022-08-11T00:37:51;99832.69;;;20.43;53.61
8039;BME280;4062;49.844;8.120;2022-08-11T00:39:54;99843.41;;;20.43;53.89
8039;BME280;4062;49.844;8.120;2022-08-11T00:57:41;99828.31;;;20.42;53.57
8039;BME280;4062;49.844;8.120;2022-08-11T01:00:15;99835.38;;;20.43;53.97
8039;BME280;4062;49.844;8.120;2022-08-11T01:22:16;99831.84;;;20.43;53.83
8039;BME280;4062;49.844;8.120;2022-08-11T01:27:50;99842.56;;;20.43;53.80
8039;BME280;4062;49.844;8.120;2022-08-11T01:38:26;99838.94;;;20.44;53.85
8039;BME280;4062;49.844;8.120;2022-08-11T01:41:14;99834.53;;;20.43;53.78
8039;BME280;4062;49.844;8.120;2022-08-11T01:46:21;99846.22;;;20.42;53.74
8039;BME280;4062;49.844;8.120;2022-08-11T01:48:41;99839.88;;;20.43;53.90
8039;BME280;4062;49.844;8.120;2022-08-11T01:55:58;99847.94;;;20.43;53.99
8039;BME280;4062;49.844;8.120;2022-08-11T02:03:09;99846.22;;;20.42;53.90
8039;BME280;4062;49.844;8.120;2022-08-11T02:12:55;99844.41;;;20.42;53.69
8039;BME280;4062;49.844;8.120;2022-08-11T02:15:32;99843.53;;;20.42;53.92
8039;BME280;4062;49.844;8.120;2022-08-11T02:22:59;99841.72;;;20.42;53.86
8039;BME280;4062;49.844;8.120;2022-08-11T02:25:45;99848.91;;;20.42;53.60
8039;BME280;4062;49.844;8.120;2022-08-11T02:27:59;99851.56;;;20.42;53.60
8039;BME280;4062;49.844;8.120;2022-08-11T02:30:09;99849.78;;;20.42;53.65
8039;BME280;4062;49.844;8.120;2022-08-11T02:32:23;99853.31;;;20.43;53.85
8039;BME280;4062;49.844;8.120;2022-08-11T02:35:20;99851.56;;;20.42;53.69
8039;BME280;4062;49.844;8.120;2022-08-11T02:39:46;99846.22;;;20.42;53.86
8039;BME280;4062;49.844;8.120;2022-08-11T02:45:00;99845.34;;;20.41;53.61
8039;BME280;4062;49.844;8.120;2022-08-11T02:47:40;99838.16;;;20.42;53.84
8039;BME280;4062;49.844;8.120;2022-08-11T02:50:21;99832.78;;;20.42;53.73
8039;BME280;4062;49.844;8.120;2022-08-11T02:52:47;99840.84;;;20.42;53.61
8039;BME280;4062;49.844;8.120;2022-08-11T02:55:15;99844.41;;;20.42;53.53
8039;BME280;4062;49.844;8.120;2022-08-11T02:57:36;99844.47;;;20.41;53.88
8039;BME280;4062;49.844;8.120;2022-08-11T03:00:05;99846.22;;;20.42;53.72
8039;BME280;4062;49.844;8.120;2022-08-11T03:02:23;99836.34;;;20.42;53.56
8039;BME280;4062;49.844;8.120;2022-08-11T03:07:15;99831.94;;;20.41;53.38
8039;BME280;4062;49.844;8.120;2022-08-11T03:12:10;99848.91;;;20.42;53.72
8039;BME280;4062;49.844;8.120;2022-08-11T03:17:35;99840.84;;;20.42;53.54
8039;BME280;4062;49.844;8.120;2022-08-11T03:22:35;99842.66;;;20.41;53.60
8039;BME280;4062;49.844;8.120;2022-08-11T03:27:23;99842.66;;;20.41;53.90
8039;BME280;4062;49.844;8.120;2022-08-11T03:29:57;99842.66;;;20.41;53.76
8039;BME280;4062;49.844;8.120;2022-08-11T03:32:18;99847.16;;;20.41;53.67
8039;BME280;4062;49.844;8.120;2022-08-11T03:34:24;99848.03;;;20.41;53.51
8039;BME280;4062;49.844;8.120;2022-08-11T03:46:34;99850.72;;;20.41;53.81
8039;BME280;4062;49.844;8.120;2022-08-11T03:49:00;99847.16;;;20.41;53.61
8039;BME280;4062;49.844;8.120;2022-08-11T03:53:53;99841.78;;;20.41;53.67
8039;BME280;4062;49.844;8.120;2022-08-11T04:12:34;99847.16;;;20.41;53.70
8039;BME280;4062;49.844;8.120;2022-08-11T04:18:35;99848.03;;;20.41;53.47
8039;BME280;4062;49.844;8.120;2022-08-11T04:21:19;99844.47;;;20.41;53.61
8039;BME280;4062;49.844;8.120;2022-08-11T04:23:44;99847.16;;;20.41;53.81
8039;BME280;4062;49.844;8.120;2022-08-11T04:26:00;99848.03;;;20.41;53.44
8039;BME280;4062;49.844;8.120;2022-08-11T04:36:40;99840.94;;;20.40;54.00
8039;BME280;4062;49.844;8.120;2022-08-11T04:45:25;99844.47;;;20.41;53.88
8039;BME280;4062;49.844;8.120;2022-08-11T04:48:13;99844.47;;;20.41;53.69
8039;BME280;4062;49.844;8.120;2022-08-11T04:53:40;99855.22;;;20.41;53.79
8039;BME280;4062;49.844;8.120;2022-08-11T04:56:17;99860.56;;;20.41;53.50
8039;BME280;4062;49.844;8.120;2022-08-11T05:16:56;99857.03;;;20.40;53.61
8039;BME280;4062;49.844;8.120;2022-08-11T05:19:19;99854.34;;;20.40;53.94
8039;BME280;4062;49.844;8.120;2022-08-11T05:21:41;99854.34;;;20.40;53.49
8039;BME280;4062;49.844;8.120;2022-08-11T05:24:19;99857.03;;;20.40;53.49
8039;BME280;4062;49.844;8.120;2022-08-11T05:26:47;99862.41;;;20.40;53.71
8039;BME280;4062;49.844;8.120;2022-08-11T05:31:58;99854.34;;;20.40;53.81
8039;BME280;4062;49.844;8.120;2022-08-11T05:37:04;99864.22;;;20.40;53.48
8039;BME280;4062;49.844;8.120;2022-08-11T05:39:37;99865.09;;;20.40;53.74
8039;BME280;4062;49.844;8.120;2022-08-11T05:41:56;99866.03;;;20.39;53.73
8039;BME280;4062;49.844;8.120;2022-08-11T05:44:18;99869.56;;;20.40;53.85
8039;BME280;4062;49.844;8.120;2022-08-11T05:46:40;99866.91;;;20.40;53.93
8039;BME280;4062;49.844;8.120;2022-08-11T05:49:00;99864.22;;;20.40;53.64
8039;BME280;4062;49.844;8.120;2022-08-11T05:51:21;99866.91;;;20.40;53.69
8039;BME280;4062;49.844;8.120;2022-08-11T05:53:57;99863.25;;;20.41;53.76
8039;BME280;4062;49.844;8.120;2022-08-11T05:56:17;99871.41;;;20.39;53.67
8039;BME280;4062;49.844;8.120;2022-08-11T05:58:21;99874.00;;;20.41;53.85
8039;BME280;4062;49.844;8.120;2022-08-11T06:00:22;99882.03;;;20.41;53.72
8039;BME280;4062;49.844;8.120;2022-08-11T06:02:27;99878.50;;;20.40;53.54
8039;BME280;4062;49.844;8.120;2022-08-11T06:04:28;99872.25;;;20.40;53.81
8039;BME280;4062;49.844;8.120;2022-08-11T06:06:30;99877.63;;;20.40;53.82
8039;BME280;4062;49.844;8.120;2022-08-11T06:08:32;99873.16;;;20.40;53.74
8039;BME280;4062;49.844;8.120;2022-08-11T06:10:38;99876.69;;;20.41;53.68
8039;BME280;4062;49.844;8.120;2022-08-11T06:12:41;99874.94;;;20.40;53.76
8039;BME280;4062;49.844;8.120;2022-08-11T06:14:44;99878.50;;;20.40;54.03
8039;BME280;4062;49.844;8.120;2022-08-11T06:16:48;99883.00;;;20.40;53.49
8039;BME280;4062;49.844;8.120;2022-08-11T06:18:50;99886.56;;;20.40;53.61
8039;BME280;4062;49.844;8.120;2022-08-11T06:20:54;99882.16;;;20.39;53.85
8039;BME280;4062;49.844;8.120;2022-08-11T06:23:04;99883.88;;;20.40;53.63
8039;BME280;4062;49.844;8.120;2022-08-11T06:25:08;99890.09;;;20.41;53.80
8039;BME280;4062;49.844;8.120;2022-08-11T06:27:09;99884.72;;;20.41;53.49
8039;BME280;4062;49.844;8.120;2022-08-11T06:29:10;99883.88;;;20.40;53.66
8039;BME280;4062;49.844;8.120;2022-08-11T06:31:18;99881.19;;;20.40;53.67
8039;BME280;4062;49.844;8.120;2022-08-11T06:33:36;99886.56;;;20.40;54.05
8039;BME280;4062;49.844;8.120;2022-08-11T06:36:09;99882.03;;;20.41;53.57
8039;BME280;4062;49.844;8.120;2022-08-11T06:38:38;99878.50;;;20.40;53.66
8039;BME280;4062;49.844;8.120;2022-08-11T06:40:56;99884.72;;;20.41;53.57
8039;BME280;4062;49.844;8.120;2022-08-11T06:43:22;99887.41;;;20.41;53.98
8039;BME280;4062;49.844;8.120;2022-08-11T06:46:00;99883.88;;;20.40;53.97
8039;BME280;4062;49.844;8.120;2022-08-11T06:48:04;99883.00;;;20.40;53.75
8039;BME280;4062;49.844;8.120;2022-08-11T06:50:06;99884.72;;;20.41;54.07
8039;BME280;4062;49.844;8.120;2022-08-11T06:52:37;99884.72;;;20.41;53.66
8039;BME280;4062;49.844;8.120;2022-08-11T06:54:43;99883.00;;;20.40;53.77
8039;BME280;4062;49.844;8.120;2022-08-11T06:56:48;99893.66;;;20.41;53.74
8039;BME280;4062;49.844;8.120;2022-08-11T06:59:10;99881.19;;;20.40;53.93
8039;BME280;4062;49.844;8.120;2022-08-11T07:04:29;99883.88;;;20.40;53.97
8039;BME280;4062;49.844;8.120;2022-08-11T07:12:40;99876.69;;;20.41;53.93
8039;BME280;4062;49.844;8.120;2022-08-11T07:15:03;99885.63;;;20.41;53.72
8039;BME280;4062;49.844;8.120;2022-08-11T07:17:24;99879.28;;;20.42;53.97
8039;BME280;4062;49.844;8.120;2022-08-11T07:19:28;99888.19;;;20.43;54.06
8039;BME280;4062;49.844;8.120;2022-08-11T07:21:48;99893.56;;;20.43;53.85
8039;BME280;4062;49.844;8.120;2022-08-11T07:24:19;99886.38;;;20.43;54.03
8039;BME280;4062;49.844;8.120;2022-08-11T07:26:45;99880.16;;;20.43;53.61
8039;BME280;4062;49.844;8.120;2022-08-11T07:29:06;99876.50;;;20.44;53.86
8039;BME280;4062;49.844;8.120;2022-08-11T07:31:17;99877.38;;;20.44;53.48
8039;BME280;4062;49.844;8.120;2022-08-11T07:36:00;99863.94;;;20.44;53.34
8039;BME280;4062;49.844;8.120;2022-08-11T07:38:11;99870.09;;;20.46;53.37
8039;BME280;4062;49.844;8.120;2022-08-11T07:40:23;99862.94;;;20.47;53.83
8039;BME280;4062;49.844;8.120;2022-08-11T07:42:30;99863.78;;;20.48;53.59
8039;BME280;4062;49.844;8.120;2022-08-11T07:44:35;99868.19;;;20.49;53.38
8039;BME280;4062;49.844;8.120;2022-08-11T07:46:56;99868.09;;;20.50;53.57
8039;BME280;4062;49.844;8.120;2022-08-11T07:49:38;99854.69;;;20.50;53.31
8039;BME280;4062;49.844;8.120;2022-08-11T07:51:58;99864.47;;;20.51;53.32
8039;BME280;4062;49.844;8.120;2022-08-11T07:54:18;99864.38;;;20.53;53.52
8039;BME280;4062;49.844;8.120;2022-08-11T07:56:19;99862.56;;;20.53;53.61
8039;BME280;4062;49.844;8.120;2022-08-11T07:58:21;99862.56;;;20.53;53.19
8039;BME280;4062;49.844;8.120;2022-08-11T08:00:49;99853.56;;;20.54;53.14
8039;BME280;4062;49.844;8.120;2022-08-11T08:03:09;99859.78;;;20.55;53.15
8039;BME280;4062;49.844;8.120;2022-08-11T08:05:29;99855.28;;;20.55;53.04
8039;BME280;4062;49.844;8.120;2022-08-11T08:07:48;99864.97;;;20.58;53.21
8039;BME280;4062;49.844;8.120;2022-08-11T08:10:09;99863.25;;;20.57;53.20
8039;BME280;4062;49.844;8.120;2022-08-11T08:12:28;99871.28;;;20.57;53.16
8039;BME280;4062;49.844;8.120;2022-08-11T08:14:50;99864.09;;;20.57;53.52
8039;BME280;4062;49.844;8.120;2022-08-11T08:17:11;99870.44;;;20.56;53.39
8039;BME280;4062;49.844;8.120;2022-08-11T08:19:32;99864.09;;;20.57;53.48
8039;BME280;4062;49.844;8.120;2022-08-11T08:21:33;99864.97;;;20.58;53.39
8039;BME280;4062;49.844;8.120;2022-08-11T08:23:33;99871.19;;;20.58;53.28
8039;BME280;4062;49.844;8.120;2022-08-11T08:25:38;99859.59;;;20.58;53.35
8039;BME280;4062;49.844;8.120;2022-08-11T08:27:40;99871.28;;;20.57;53.71
8039;BME280;4062;49.844;8.120;2022-08-11T08:29:44;99864.03;;;20.59;53.43
8039;BME280;4062;49.844;8.120;2022-08-11T08:32:04;99871.19;;;20.58;53.32
8039;BME280;4062;49.844;8.120;2022-08-11T08:34:06;99872.06;;;20.59;53.43
8039;BME280;4062;49.844;8.120;2022-08-11T08:36:08;99872.06;;;20.59;53.46
8039;BME280;4062;49.844;8.120;2022-08-11T08:38:15;99862.19;;;20.59;53.30
8039;BME280;4062;49.844;8.120;2022-08-11T08:40:16;99855.97;;;20.59;53.76
8039;BME280;4062;49.844;8.120;2022-08-11T08:42:26;99855.97;;;20.59;53.30
8039;BME280;4062;49.844;8.120;2022-08-11T08:44:28;99868.44;;;20.60;53.73
8039;BME280;4062;49.844;8.120;2022-08-11T08:46:39;99868.50;;;20.58;53.40
8039;BME280;4062;49.844;8.120;2022-08-11T08:48:41;99867.56;;;20.59;53.56
8039;BME280;4062;49.844;8.120;2022-08-11T08:51:01;99869.41;;;20.59;53.89
8039;BME280;4062;49.844;8.120;2022-08-11T08:53:24;99873.81;;;20.60;53.67
8039;BME280;4062;49.844;8.120;2022-08-11T08:55:29;99861.34;;;20.59;53.55
8039;BME280;4062;49.844;8.120;2022-08-11T08:57:35;99860.38;;;20.60;53.52
8039;BME280;4062;49.844;8.120;2022-08-11T08:59:40;99858.56;;;20.60;53.85
8039;BME280;4062;49.844;8.120;2022-08-11T09:01:47;99865.66;;;20.61;53.32
8039;BME280;4062;49.844;8.120;2022-08-11T09:03:50;99865.66;;;20.61;53.49
8039;BME280;4062;49.844;8.120;2022-08-11T09:05:54;99876.41;;;20.61;53.44
8039;BME280;4062;49.844;8.120;2022-08-11T09:07:55;99873.72;;;20.61;53.48
8039;BME280;4062;49.844;8.120;2022-08-11T09:09:58;99874.56;;;20.62;53.61
8039;BME280;4062;49.844;8.120;2022-08-11T09:12:00;99867.50;;;20.61;53.58
8039;BME280;4062;49.844;8.120;2022-08-11T09:14:03;99876.41;;;20.61;53.17
8039;BME280;4062;49.844;8.120;2022-08-11T09:16:05;99870.19;;;20.61;53.37
8039;BME280;4062;49.844;8.120;2022-08-11T09:18:06;99869.28;;;20.60;53.33
8039;BME280;4062;49.844;8.120;2022-08-11T09:20:20;99872.88;;;20.61;53.50
8039;BME280;4062;49.844;8.120;2022-08-11T09:22:21;99863.94;;;20.60;53.48
8039;BME280;4062;49.844;8.120;2022-08-11T09:24:40;99867.56;;;20.59;53.76
8039;BME280;4062;49.844;8.120;2022-08-11T09:27:05;99867.56;;;20.59;53.77
8039;BME280;4062;49.844;8.120;2022-08-11T09:29:09;99864.88;;;20.59;54.00
8039;BME280;4062;49.844;8.120;2022-08-11T09:31:12;99870.25;;;20.59;53.49
8039;BME280;4062;49.844;8.120;2022-08-11T09:33:15;99852.41;;;20.58;53.82
8039;BME280;4062;49.844;8.120;2022-08-11T09:35:16;99870.25;;;20.59;53.62
8039;BME280;4062;49.844;8.120;2022-08-11T09:37:17;99853.28;;;20.59;53.66
8039;BME280;4062;49.844;8.120;2022-08-11T09:39:40;99864.88;;;20.59;53.58
8039;BME280;4062;49.844;8.120;2022-08-11T09:42:02;99884.56;;;20.60;53.68
8039;BME280;4062;49.844;8.120;2022-08-11T09:44:03;99866.63;;;20.60;53.60
8039;BME280;4062;49.844;8.120;2022-08-11T09:46:26;99855.88;;;20.60;53.50
8039;BME280;4062;49.844;8.120;2022-08-11T09:48:41;99848.69;;;20.61;53.61
8039;BME280;4062;49.844;8.120;2022-08-11T09:50:46;99853.09;;;20.62;53.51
8039;BME280;4062;49.844;8.120;2022-08-11T09:52:48;99850.41;;;20.62;53.51
8039;BME280;4062;49.844;8.120;2022-08-11T09:54:50;99851.28;;;20.62;53.42
8039;BME280;4062;49.844;8.120;2022-08-11T09:56:52;99860.19;;;20.63;53.75
8039;BME280;4062;49.844;8.120;2022-08-11T09:59:12;99844.97;;;20.64;53.70
8039;BME280;4062;49.844;8.120;2022-08-11T10:01:14;99844.97;;;20.64;53.64
8039;BME280;4062;49.844;8.120;2022-08-11T10:03:26;99853.88;;;20.64;53.84
8039;BME280;4062;49.844;8.120;2022-08-11T10:05:28;99840.44;;;20.64;53.92
8039;BME280;4062;49.844;8.120;2022-08-11T10:07:51;99848.50;;;20.64;53.32
8039;BME280;4062;49.844;8.120;2022-08-11T10:10:00;99850.34;;;20.64;53.86
8039;BME280;4062;49.844;8.120;2022-08-11T10:12:01;99843.13;;;20.64;53.73
8039;BME280;4062;49.844;8.120;2022-08-11T10:14:05;99847.66;;;20.64;53.70
8039;BME280;4062;49.844;8.120;2022-08-11T10:16:28;99838.72;;;20.63;53.83
8039;BME280;4062;49.844;8.120;2022-08-11T10:18:36;99839.59;;;20.64;53.48
8039;BME280;4062;49.844;8.120;2022-08-11T10:20:51;99836.03;;;20.63;53.50
8039;BME280;4062;49.844;8.120;2022-08-11T10:22:54;99846.75;;;20.63;54.09
8039;BME280;4062;49.844;8.120;2022-08-11T10:27:16;99846.75;;;20.63;53.71
8039;BME280;4062;49.844;8.120;2022-08-11T10:29:18;99842.28;;;20.64;53.52
8039;BME280;4062;49.844;8.120;2022-08-11T10:31:39;99839.59;;;20.64;53.60
8039;BME280;4062;49.844;8.120;2022-08-11T10:34:01;99833.28;;;20.65;53.67
8039;BME280;4062;49.844;8.120;2022-08-11T10:36:06;99837.75;;;20.64;53.71
8039;BME280;4062;49.844;8.120;2022-08-11T10:38:07;99838.66;;;20.65;53.61
8039;BME280;4062;49.844;8.120;2022-08-11T10:40:13;99830.59;;;20.65;53.47
8039;BME280;4062;49.844;8.120;2022-08-11T10:42:18;99824.34;;;20.64;53.79
8039;BME280;4062;49.844;8.120;2022-08-11T10:44:46;99831.44;;;20.65;53.68
8039;BME280;4062;49.844;8.120;2022-08-11T10:46:51;99824.34;;;20.64;53.55
8039;BME280;4062;49.844;8.120;2022-08-11T10:49:11;99822.53;;;20.65;53.43
8039;BME280;4062;49.844;8.120;2022-08-11T10:51:12;99819.84;;;20.65;53.64
8039;BME280;4062;49.844;8.120;2022-08-11T10:53:14;99827.03;;;20.64;53.83
8039;BME280;4062;49.844;8.120;2022-08-11T10:55:36;99807.38;;;20.64;53.80
8039;BME280;4062;49.844;8.120;2022-08-11T10:57:57;99812.75;;;20.64;53.58
8039;BME280;4062;49.844;8.120;2022-08-11T11:00:17;99812.75;;;20.64;53.71
8039;BME280;4062;49.844;8.120;2022-08-11T11:02:18;99803.75;;;20.65;53.65
8039;BME280;4062;49.844;8.120;2022-08-11T11:07:10;99809.19;;;20.63;53.43
8039;BME280;4062;49.844;8.120;2022-08-11T11:09:31;99804.69;;;20.64;53.79
8039;BME280;4062;49.844;8.120;2022-08-11T11:11:36;99794.81;;;20.64;53.49
8039;BME280;4062;49.844;8.120;2022-08-11T11:13:56;99793.06;;;20.63;53.85
8039;BME280;4062;49.844;8.120;2022-08-11T11:16:16;99785.91;;;20.64;53.59
8039;BME280;4062;49.844;8.120;2022-08-11T11:18:36;99789.44;;;20.64;53.83
8039;BME280;4062;49.844;8.120;2022-08-11T11:20:56;99788.59;;;20.64;53.65
8039;BME280;4062;49.844;8.120;2022-08-11T11:23:34;99786.75;;;20.64;53.48
8039;BME280;4062;49.844;8.120;2022-08-11T11:25:57;99782.34;;;20.63;53.93
8039;BME280;4062;49.844;8.120;2022-08-11T11:31:00;99785.91;;;20.64;53.47
8039;BME280;4062;49.844;8.120;2022-08-11T11:33:37;99782.34;;;20.63;53.49
8039;BME280;4062;49.844;8.120;2022-08-11T11:36:11;99776.97;;;20.63;53.60
8039;BME280;4062;49.844;8.120;2022-08-11T11:38:16;99779.66;;;20.63;53.56
8039;BME280;4062;49.844;8.120;2022-08-11T11:40:19;99772.47;;;20.64;53.79
8039;BME280;4062;49.844;8.120;2022-08-11T11:42:22;99779.66;;;20.63;53.81
8039;BME280;4062;49.844;8.120;2022-08-11T11:44:23;99770.75;;;20.62;53.55
8039;BME280;4062;49.844;8.120;2022-08-11T11:46:27;99759.13;;;20.62;53.69
8039;BME280;4062;49.844;8.120;2022-08-11T11:48:30;99769.88;;;20.62;53.54
8039;BME280;4062;49.844;8.120;2022-08-11T11:50:36;99759.13;;;20.62;53.68
8039;BME280;4062;49.844;8.120;2022-08-11T11:52:38;99754.75;;;20.61;53.56
8039;BME280;4062;49.844;8.120;2022-08-11T11:54:40;99754.63;;;20.62;53.78
8039;BME280;4062;49.844;8.120;2022-08-11T11:56:42;99751.06;;;20.62;53.66
8039;BME280;4062;49.844;8.120;2022-08-11T11:58:44;99739.47;;;20.61;53.71
8039;BME280;4062;49.844;8.120;2022-08-11T12:01:05;99731.44;;;20.61;53.55
8039;BME280;4062;49.844;8.120;2022-08-11T12:03:16;99739.47;;;20.61;53.92
8039;BME280;4062;49.844;8.120;2022-08-11T12:05:18;99739.47;;;20.61;53.71
8039;BME280;4062;49.844;8.120;2022-08-11T12:07:19;99738.53;;;20.62;53.69
8039;BME280;4062;49.844;8.120;2022-08-11T12:09:38;99725.22;;;20.61;53.75
8039;BME280;4062;49.844;8.120;2022-08-11T12:11:41;99720.69;;;20.61;53.86
8039;BME280;4062;49.844;8.120;2022-08-11T12:14:06;99716.28;;;20.60;53.45
8039;BME280;4062;49.844;8.120;2022-08-11T12:16:13;99717.16;;;20.61;53.50
8039;BME280;4062;49.844;8.120;2022-08-11T12:18:15;99718.97;;;20.60;53.60
8039;BME280;4062;49.844;8.120;2022-08-11T12:20:17;99720.69;;;20.61;53.81
8039;BME280;4062;49.844;8.120;2022-08-11T12:22:20;99725.22;;;20.61;53.87
8039;BME280;4062;49.844;8.120;2022-08-11T12:24:40;99716.28;;;20.60;53.92
8039;BME280;4062;49.844;8.120;2022-08-11T12:27:00;99714.47;;;20.61;53.66
8039;BME280;4062;49.844;8.120;2022-08-11T12:29:21;99713.59;;;20.60;53.67
8039;BME280;4062;49.844;8.120;2022-08-11T12:31:31;99702.84;;;20.60;53.66
8039;BME280;4062;49.844;8.120;2022-08-11T12:33:33;99718.97;;;20.60;53.93
8039;BME280;4062;49.844;8.120;2022-08-11T12:35:34;99710.91;;;20.60;53.75
8039;BME280;4062;49.844;8.120;2022-08-11T12:37:40;99714.47;;;20.61;53.91
8039;BME280;4062;49.844;8.120;2022-08-11T12:39:49;99697.50;;;20.60;53.95
8039;BME280;4062;49.844;8.120;2022-08-11T12:42:14;99691.25;;;20.60;53.69
8039;BME280;4062;49.844;8.120;2022-08-11T12:44:34;99694.81;;;20.60;53.80
8039;BME280;4062;49.844;8.120;2022-08-11T12:46:57;99691.25;;;20.60;53.93
8039;BME280;4062;49.844;8.120;2022-08-11T12:49:08;99688.59;;;20.60;53.63
8039;BME280;4062;49.844;8.120;2022-08-11T12:51:40;99700.28;;;20.59;53.73
8039;BME280;4062;49.844;8.120;2022-08-11T12:56:48;99673.44;;;20.59;53.54
8039;BME280;4062;49.844;8.120;2022-08-11T12:59:08;99688.59;;;20.60;54.08
8039;BME280;4062;49.844;8.120;2022-08-11T13:01:29;99671.59;;;20.59;53.76
8039;BME280;4062;49.844;8.120;2022-08-11T13:03:49;99671.59;;;20.59;53.77
8039;BME280;4062;49.844;8.120;2022-08-11T13:06:08;99668.91;;;20.59;53.81
8039;BME280;4062;49.844;8.120;2022-08-11T13:08:11;99670.75;;;20.59;53.75
8039;BME280;4062;49.844;8.120;2022-08-11T13:10:16;99664.50;;;20.58;53.81
8039;BME280;4062;49.844;8.120;2022-08-11T13:12:41;99661.81;;;20.58;53.57
8039;BME280;4062;49.844;8.120;2022-08-11T13:14:48;99661.81;;;20.58;53.57
8039;BME280;4062;49.844;8.120;2022-08-11T13:16:51;99669.88;;;20.58;53.93
8039;BME280;4062;49.844;8.120;2022-08-11T13:19:10;99661.81;;;20.58;53.67
8039;BME280;4062;49.844;8.120;2022-08-11T13:21:12;99667.19;;;20.58;53.84
8039;BME280;4062;49.844;8.120;2022-08-11T13:23:15;99656.56;;;20.57;53.78
8039;BME280;4062;49.844;8.120;2022-08-11T13:25:18;99659.34;;;20.55;53.82
8039;BME280;4062;49.844;8.120;2022-08-11T13:27:21;99664.59;;;20.57;53.89
8039;BME280;4062;49.844;8.120;2022-08-11T13:29:24;99663.75;;;20.56;54.02
8039;BME280;4062;49.844;8.120;2022-08-11T13:31:26;99660.97;;;20.58;53.96
8039;BME280;4062;49.844;8.120;2022-08-11T13:33:27;99654.81;;;20.56;53.76
8039;BME280;4062;49.844;8.120;2022-08-11T13:35:30;99659.22;;;20.57;54.16
8039;BME280;4062;49.844;8.120;2022-08-11T13:37:32;99653.00;;;20.56;53.84
8039;BME280;4062;49.844;8.120;2022-08-11T13:39:36;99643.22;;;20.55;53.67
8039;BME280;4062;49.844;8.120;2022-08-11T13:41:40;99645.91;;;20.55;54.16
8039;BME280;4062;49.844;8.120;2022-08-11T13:43:43;99653.88;;;20.57;53.72
8039;BME280;4062;49.844;8.120;2022-08-11T13:45:45;99650.34;;;20.56;53.96
8039;BME280;4062;49.844;8.120;2022-08-11T13:47:48;99640.56;;;20.55;54.03
8039;BME280;4062;49.844;8.120;2022-08-11T13:49:50;99630.66;;;20.56;53.78
8039;BME280;4062;49.844;8.120;2022-08-11T13:51:53;99631.63;;;20.55;53.83
8039;BME280;4062;49.844;8.120;2022-08-11T13:56:06;99619.94;;;20.56;53.59
8039;BME280;4062;49.844;8.120;2022-08-11T13:58:09;99622.59;;;20.56;53.95
8039;BME280;4062;49.844;8.120;2022-08-11T14:00:11;99614.66;;;20.54;53.77
8039;BME280;4062;49.844;8.120;2022-08-11T14:02:15;99604.78;;;20.55;53.96
8039;BME280;4062;49.844;8.120;2022-08-11T14:04:27;99611.03;;;20.55;53.89
8039;BME280;4062;49.844;8.120;2022-08-11T14:06:30;99611.97;;;20.54;53.99
8039;BME280;4062;49.844;8.120;2022-08-11T14:08:35;99607.47;;;20.55;53.77
8039;BME280;4062;49.844;8.120;2022-08-11T14:10:38;99618.13;;;20.56;53.95
8039;BME280;4062;49.844;8.120;2022-08-11T14:12:41;99602.97;;;20.55;54.00
8039;BME280;4062;49.844;8.120;2022-08-11T14:15:10;99593.19;;;20.54;53.77
8039;BME280;4062;49.844;8.120;2022-08-11T14:17:16;99595.88;;;20.54;54.11
8039;BME280;4062;49.844;8.120;2022-08-11T14:19:24;99595.88;;;20.54;53.99
8039;BME280;4062;49.844;8.120;2022-08-11T14:21:26;99595.88;;;20.54;53.93
8039;BME280;4062;49.844;8.120;2022-08-11T14:23:51;99601.25;;;20.54;54.21
8039;BME280;4062;49.844;8.120;2022-08-11T14:25:59;99593.19;;;20.54;54.15
8039;BME280;4062;49.844;8.120;2022-08-11T14:28:33;99590.50;;;20.54;53.99
8039;BME280;4062;49.844;8.120;2022-08-11T14:30:34;99592.31;;;20.54;53.71
8039;BME280;4062;49.844;8.120;2022-08-11T14:32:55;99585.13;;;20.54;54.09
8039;BME280;4062;49.844;8.120;2022-08-11T14:34:57;99581.56;;;20.54;53.90
8039;BME280;4062;49.844;8.120;2022-08-11T14:37:01;99576.19;;;20.54;54.04
8039;BME280;4062;49.844;8.120;2022-08-11T14:39:13;99576.19;;;20.54;53.67
8039;BME280;4062;49.844;8.120;2022-08-11T14:41:17;99570.84;;;20.54;53.73
8039;BME280;4062;49.844;8.120;2022-08-11T14:43:41;99586.09;;;20.53;53.78
8039;BME280;4062;49.844;8.120;2022-08-11T14:46:01;99571.72;;;20.54;53.77
8039;BME280;4062;49.844;8.120;2022-08-11T14:48:32;99561.94;;;20.53;53.78
8039;BME280;4062;49.844;8.120;2022-08-11T14:50:34;99567.31;;;20.53;53.81
8039;BME280;4062;49.844;8.120;2022-08-11T14:52:35;99565.47;;;20.54;54.08
8039;BME280;4062;49.844;8.120;2022-08-11T14:54:37;99562.78;;;20.54;53.77
8039;BME280;4062;49.844;8.120;2022-08-11T14:57:00;99554.72;;;20.54;53.67
8039;BME280;4062;49.844;8.120;2022-08-11T14:59:02;99555.69;;;20.53;53.98
8039;BME280;4062;49.844;8.120;2022-08-11T15:01:04;99545.84;;;20.53;53.93
8039;BME280;4062;49.844;8.120;2022-08-11T15:03:27;99550.31;;;20.53;53.83
8039;BME280;4062;49.844;8.120;2022-08-11T15:05:30;99555.69;;;20.53;54.02
8039;BME280;4062;49.844;8.120;2022-08-11T15:07:32;99554.72;;;20.54;53.68
8039;BME280;4062;49.844;8.120;2022-08-11T15:09:33;99549.47;;;20.52;53.83
8039;BME280;4062;49.844;8.120;2022-08-11T15:11:34;99555.69;;;20.53;53.77